sensor_id;sensor_type;location;lat;lon;timestamp;P1;durP1;ratioP1;P2;durP2;ratioP2
33858;SDS011;20156;47.486;12.074;2022-12-07T00:02:00;15.67;;;10.83;;
33858;SDS011;20156;47.486;12.074;2022-12-07T00:04:26;16.20;;;11.77;;
33858;SDS011;20156;47.486;12.074;2022-12-07T00:06:52;15.80;;;11.07;;
33858;SDS011;20156;47.486;12.074;2022-12-07T00:09:18;15.50;;;11.33;;
33858;SDS011;20156;47.486;12.074;2022-12-07T00:11:44;12.43;;;10.53;;
33858;SDS011;20156;47.486;12.074;2022-12-07T00:14:14;14.17;;;10.87;;
33858;SDS011;20156;47.486;12.074;2022-12-07T00:16:41;15.57;;;12.20;;
33858;SDS011;20156;47.486;12.074;2022-12-07T00:19:09;16.40;;;12.20;;
33858;SDS011;20156;47.486;12.074;2022-12-07T00:21:36;15.90;;;11.80;;
33858;SDS011;20156;47.486;12.074;2022-12-07T00:24:02;14.73;;;11.40;;
33858;SDS011;20156;47.486;12.074;2022-12-07T00:26:32;16.23;;;10.67;;
33858;SDS011;20156;47.486;12.074;2022-12-07T00:29:04;14.50;;;11.20;;
33858;SDS011;20156;47.486;12.074;2022-12-07T00:31:32;15.03;;;10.97;;
33858;SDS011;20156;47.486;12.074;2022-12-07T00:34:03;15.50;;;11.00;;
33858;SDS011;20156;47.486;12.074;2022-12-07T00:36:30;17.27;;;12.07;;
33858;SDS011;20156;47.486;12.074;2022-12-07T00:38:56;16.13;;;11.43;;
33858;SDS011;20156;47.486;12.074;2022-12-07T00:41:23;15.20;;;11.70;;
33858;SDS011;20156;47.486;12.074;2022-12-07T00:43:50;15.00;;;11.77;;
33858;SDS011;20156;47.486;12.074;2022-12-07T00:46:16;15.40;;;11.90;;
33858;SDS011;20156;47.486;12.074;2022-12-07T00:48:43;13.27;;;10.83;;
33858;SDS011;20156;47.486;12.074;2022-12-07T00:51:10;15.20;;;11.10;;
33858;SDS011;20156;47.486;12.074;2022-12-07T00:53:37;13.47;;;10.33;;
33858;SDS011;20156;47.486;12.074;2022-12-07T00:56:06;13.33;;;10.63;;
33858;SDS011;20156;47.486;12.074;2022-12-07T00:58:33;13.57;;;10.80;;
33858;SDS011;20156;47.486;12.074;2022-12-07T01:01:02;11.43;;;10.10;;
33858;SDS011;20156;47.486;12.074;2022-12-07T01:03:29;14.10;;;10.50;;
33858;SDS011;20156;47.486;12.074;2022-12-07T01:05:55;13.43;;;10.17;;
33858;SDS011;20156;47.486;12.074;2022-12-07T01:08:21;13.80;;;10.83;;
33858;SDS011;20156;47.486;12.074;2022-12-07T01:10:46;12.60;;;9.87;;
33858;SDS011;20156;47.486;12.074;2022-12-07T01:13:12;11.87;;;10.00;;
33858;SDS011;20156;47.486;12.074;2022-12-07T01:15:39;14.33;;;10.60;;
33858;SDS011;20156;47.486;12.074;2022-12-07T01:18:08;13.80;;;10.23;;
33858;SDS011;20156;47.486;12.074;2022-12-07T01:20:33;13.63;;;10.60;;
33858;SDS011;20156;47.486;12.074;2022-12-07T01:22:59;12.30;;;9.77;;
33858;SDS011;20156;47.486;12.074;2022-12-07T01:25:24;14.27;;;10.33;;
33858;SDS011;20156;47.486;12.074;2022-12-07T01:27:50;13.47;;;9.73;;
33858;SDS011;20156;47.486;12.074;2022-12-07T01:30:15;14.37;;;10.17;;
33858;SDS011;20156;47.486;12.074;2022-12-07T01:32:41;14.03;;;9.77;;
33858;SDS011;20156;47.486;12.074;2022-12-07T01:35:06;13.00;;;9.63;;
33858;SDS011;20156;47.486;12.074;2022-12-07T01:37:36;11.90;;;10.17;;
33858;SDS011;20156;47.486;12.074;2022-12-07T01:40:04;13.03;;;9.83;;
33858;SDS011;20156;47.486;12.074;2022-12-07T01:42:31;15.70;;;10.17;;
33858;SDS011;20156;47.486;12.074;2022-12-07T01:47:55;14.13;;;9.93;;
33858;SDS011;20156;47.486;12.074;2022-12-07T01:50:21;11.03;;;9.83;;
33858;SDS011;20156;47.486;12.074;2022-12-07T01:52:51;12.00;;;9.43;;
33858;SDS011;20156;47.486;12.074;2022-12-07T01:55:18;12.43;;;9.43;;
33858;SDS011;20156;47.486;12.074;2022-12-07T01:57:47;11.17;;;8.83;;
33858;SDS011;20156;47.486;12.074;2022-12-07T02:00:16;13.47;;;9.83;;
33858;SDS011;20156;47.486;12.074;2022-12-07T02:03:43;10.03;;;9.03;;
33858;SDS011;20156;47.486;12.074;2022-12-07T02:05:43;10.90;;;9.30;;
33858;SDS011;20156;47.486;12.074;2022-12-07T02:08:11;10.23;;;8.70;;
33858;SDS011;20156;47.486;12.074;2022-12-07T02:10:37;12.60;;;9.43;;
33858;SDS011;20156;47.486;12.074;2022-12-07T02:15:45;12.23;;;9.33;;
33858;SDS011;20156;47.486;12.074;2022-12-07T02:26:08;11.53;;;8.97;;
33858;SDS011;20156;47.486;12.074;2022-12-07T02:28:54;10.77;;;8.30;;
33858;SDS011;20156;47.486;12.074;2022-12-07T02:31:36;10.50;;;9.33;;
33858;SDS011;20156;47.486;12.074;2022-12-07T02:34:09;13.40;;;8.50;;
33858;SDS011;20156;47.486;12.074;2022-12-07T02:39:57;10.10;;;7.97;;
33858;SDS011;20156;47.486;12.074;2022-12-07T02:42:35;10.33;;;9.23;;
33858;SDS011;20156;47.486;12.074;2022-12-07T02:45:05;10.77;;;8.60;;
33858;SDS011;20156;47.486;12.074;2022-12-07T02:47:33;11.87;;;9.10;;
33858;SDS011;20156;47.486;12.074;2022-12-07T02:50:02;11.90;;;8.93;;
33858;SDS011;20156;47.486;12.074;2022-12-07T02:52:30;13.27;;;9.20;;
33858;SDS011;20156;47.486;12.074;2022-12-07T02:54:55;11.43;;;8.90;;
33858;SDS011;20156;47.486;12.074;2022-12-07T03:00:19;10.90;;;9.13;;
33858;SDS011;20156;47.486;12.074;2022-12-07T03:03:04;10.80;;;8.60;;
33858;SDS011;20156;47.486;12.074;2022-12-07T03:08:21;10.20;;;8.87;;
33858;SDS011;20156;47.486;12.074;2022-12-07T03:11:07;11.43;;;8.90;;
33858;SDS011;20156;47.486;12.074;2022-12-07T03:21:32;9.23;;;8.23;;
33858;SDS011;20156;47.486;12.074;2022-12-07T03:24:06;10.07;;;8.30;;
33858;SDS011;20156;47.486;12.074;2022-12-07T03:26:36;11.73;;;9.10;;
33858;SDS011;20156;47.486;12.074;2022-12-07T03:29:07;9.97;;;8.57;;
33858;SDS011;20156;47.486;12.074;2022-12-07T03:31:40;9.43;;;8.23;;
33858;SDS011;20156;47.486;12.074;2022-12-07T03:37:03;13.23;;;9.63;;
33858;SDS011;20156;47.486;12.074;2022-12-07T03:39:39;12.27;;;8.90;;
33858;SDS011;20156;47.486;12.074;2022-12-07T03:42:13;11.07;;;9.23;;
33858;SDS011;20156;47.486;12.074;2022-12-07T03:44:38;10.23;;;8.77;;
33858;SDS011;20156;47.486;12.074;2022-12-07T03:52:30;12.03;;;9.70;;
33858;SDS011;20156;47.486;12.074;2022-12-07T03:54:59;12.70;;;7.93;;
33858;SDS011;20156;47.486;12.074;2022-12-07T03:57:25;11.77;;;8.33;;
33858;SDS011;20156;47.486;12.074;2022-12-07T03:59:55;12.13;;;8.97;;
33858;SDS011;20156;47.486;12.074;2022-12-07T04:02:22;15.10;;;9.63;;
33858;SDS011;20156;47.486;12.074;2022-12-07T04:04:50;10.50;;;9.23;;
33858;SDS011;20156;47.486;12.074;2022-12-07T04:07:15;11.93;;;9.13;;
33858;SDS011;20156;47.486;12.074;2022-12-07T04:09:41;11.37;;;9.23;;
33858;SDS011;20156;47.486;12.074;2022-12-07T04:12:06;10.73;;;9.23;;
33858;SDS011;20156;47.486;12.074;2022-12-07T04:14:32;11.33;;;9.47;;
33858;SDS011;20156;47.486;12.074;2022-12-07T04:16:58;14.97;;;9.93;;
33858;SDS011;20156;47.486;12.074;2022-12-07T04:19:27;13.57;;;9.87;;
33858;SDS011;20156;47.486;12.074;2022-12-07T04:21:55;11.27;;;9.80;;
33858;SDS011;20156;47.486;12.074;2022-12-07T04:24:21;12.00;;;9.70;;
33858;SDS011;20156;47.486;12.074;2022-12-07T04:26:47;14.57;;;10.50;;
33858;SDS011;20156;47.486;12.074;2022-12-07T04:29:13;12.13;;;9.90;;
33858;SDS011;20156;47.486;12.074;2022-12-07T04:31:39;10.90;;;9.70;;
33858;SDS011;20156;47.486;12.074;2022-12-07T04:34:04;12.80;;;10.60;;
33858;SDS011;20156;47.486;12.074;2022-12-07T04:36:31;16.03;;;10.30;;
33858;SDS011;20156;47.486;12.074;2022-12-07T04:38:57;15.07;;;10.37;;
33858;SDS011;20156;47.486;12.074;2022-12-07T04:41:23;12.87;;;9.73;;
33858;SDS011;20156;47.486;12.074;2022-12-07T04:44:02;15.03;;;9.23;;
33858;SDS011;20156;47.486;12.074;2022-12-07T04:46:32;13.03;;;10.70;;
33858;SDS011;20156;47.486;12.074;2022-12-07T04:48:58;12.53;;;9.57;;
33858;SDS011;20156;47.486;12.074;2022-12-07T04:51:24;10.90;;;9.30;;
33858;SDS011;20156;47.486;12.074;2022-12-07T04:53:51;12.03;;;9.97;;
33858;SDS011;20156;47.486;12.074;2022-12-07T04:56:17;12.80;;;9.77;;
33858;SDS011;20156;47.486;12.074;2022-12-07T04:58:44;11.70;;;10.33;;
33858;SDS011;20156;47.486;12.074;2022-12-07T05:01:11;15.17;;;10.30;;
33858;SDS011;20156;47.486;12.074;2022-12-07T05:03:37;13.63;;;10.07;;
33858;SDS011;20156;47.486;12.074;2022-12-07T05:06:03;13.63;;;10.10;;
33858;SDS011;20156;47.486;12.074;2022-12-07T05:08:28;11.27;;;9.83;;
33858;SDS011;20156;47.486;12.074;2022-12-07T05:10:54;11.43;;;8.80;;
33858;SDS011;20156;47.486;12.074;2022-12-07T05:13:19;15.10;;;10.17;;
33858;SDS011;20156;47.486;12.074;2022-12-07T05:15:46;13.03;;;9.53;;
33858;SDS011;20156;47.486;12.074;2022-12-07T05:18:12;12.87;;;9.20;;
33858;SDS011;20156;47.486;12.074;2022-12-07T05:20:38;13.63;;;10.00;;
33858;SDS011;20156;47.486;12.074;2022-12-07T05:23:05;12.83;;;9.87;;
33858;SDS011;20156;47.486;12.074;2022-12-07T05:25:30;10.90;;;8.43;;
33858;SDS011;20156;47.486;12.074;2022-12-07T05:27:56;13.63;;;10.00;;
33858;SDS011;20156;47.486;12.074;2022-12-07T05:30:22;13.60;;;9.87;;
33858;SDS011;20156;47.486;12.074;2022-12-07T05:32:48;15.23;;;10.30;;
33858;SDS011;20156;47.486;12.074;2022-12-07T05:35:14;13.90;;;9.97;;
33858;SDS011;20156;47.486;12.074;2022-12-07T05:37:39;12.33;;;9.37;;
33858;SDS011;20156;47.486;12.074;2022-12-07T05:40:05;10.53;;;8.80;;
33858;SDS011;20156;47.486;12.074;2022-12-07T05:42:31;11.07;;;9.53;;
33858;SDS011;20156;47.486;12.074;2022-12-07T05:44:56;16.70;;;11.07;;
33858;SDS011;20156;47.486;12.074;2022-12-07T05:47:22;16.13;;;11.70;;
33858;SDS011;20156;47.486;12.074;2022-12-07T05:49:47;13.83;;;10.20;;
33858;SDS011;20156;47.486;12.074;2022-12-07T05:52:13;11.53;;;9.40;;
33858;SDS011;20156;47.486;12.074;2022-12-07T05:54:38;12.27;;;9.90;;
33858;SDS011;20156;47.486;12.074;2022-12-07T05:57:04;12.87;;;10.33;;
33858;SDS011;20156;47.486;12.074;2022-12-07T05:59:29;14.33;;;10.03;;
33858;SDS011;20156;47.486;12.074;2022-12-07T06:01:56;12.50;;;9.60;;
33858;SDS011;20156;47.486;12.074;2022-12-07T06:04:24;14.40;;;10.43;;
33858;SDS011;20156;47.486;12.074;2022-12-07T06:06:51;14.43;;;9.33;;
33858;SDS011;20156;47.486;12.074;2022-12-07T06:09:17;16.73;;;10.80;;
33858;SDS011;20156;47.486;12.074;2022-12-07T06:11:43;14.57;;;10.10;;
33858;SDS011;20156;47.486;12.074;2022-12-07T06:14:27;13.90;;;10.87;;
33858;SDS011;20156;47.486;12.074;2022-12-07T06:16:53;12.80;;;9.60;;
33858;SDS011;20156;47.486;12.074;2022-12-07T06:19:18;13.30;;;9.67;;
33858;SDS011;20156;47.486;12.074;2022-12-07T06:21:44;13.33;;;9.57;;
33858;SDS011;20156;47.486;12.074;2022-12-07T06:24:12;13.17;;;9.90;;
33858;SDS011;20156;47.486;12.074;2022-12-07T06:26:39;14.33;;;9.87;;
33858;SDS011;20156;47.486;12.074;2022-12-07T06:29:05;13.00;;;8.63;;
33858;SDS011;20156;47.486;12.074;2022-12-07T06:31:31;15.73;;;9.67;;
33858;SDS011;20156;47.486;12.074;2022-12-07T06:33:59;15.13;;;10.17;;
33858;SDS011;20156;47.486;12.074;2022-12-07T06:36:27;13.70;;;10.13;;
33858;SDS011;20156;47.486;12.074;2022-12-07T06:38:53;15.50;;;10.13;;
33858;SDS011;20156;47.486;12.074;2022-12-07T06:41:19;13.80;;;10.30;;
33858;SDS011;20156;47.486;12.074;2022-12-07T06:43:45;11.30;;;9.27;;
33858;SDS011;20156;47.486;12.074;2022-12-07T06:46:11;12.40;;;9.37;;
33858;SDS011;20156;47.486;12.074;2022-12-07T06:48:37;11.50;;;9.37;;
33858;SDS011;20156;47.486;12.074;2022-12-07T06:51:03;13.23;;;9.60;;
33858;SDS011;20156;47.486;12.074;2022-12-07T06:53:28;12.97;;;9.70;;
33858;SDS011;20156;47.486;12.074;2022-12-07T06:55:54;12.60;;;9.67;;
33858;SDS011;20156;47.486;12.074;2022-12-07T06:58:19;13.20;;;9.87;;
33858;SDS011;20156;47.486;12.074;2022-12-07T07:00:45;13.00;;;10.13;;
33858;SDS011;20156;47.486;12.074;2022-12-07T07:03:10;13.10;;;9.07;;
33858;SDS011;20156;47.486;12.074;2022-12-07T07:05:36;11.77;;;9.53;;
33858;SDS011;20156;47.486;12.074;2022-12-07T07:08:02;13.97;;;9.93;;
33858;SDS011;20156;47.486;12.074;2022-12-07T07:10:27;11.43;;;9.60;;
33858;SDS011;20156;47.486;12.074;2022-12-07T07:12:53;10.90;;;9.00;;
33858;SDS011;20156;47.486;12.074;2022-12-07T07:15:18;14.07;;;10.40;;
33858;SDS011;20156;47.486;12.074;2022-12-07T07:17:44;16.83;;;10.27;;
33858;SDS011;20156;47.486;12.074;2022-12-07T07:20:10;11.37;;;9.77;;
33858;SDS011;20156;47.486;12.074;2022-12-07T07:22:36;15.67;;;10.63;;
33858;SDS011;20156;47.486;12.074;2022-12-07T07:25:01;11.67;;;9.87;;
33858;SDS011;20156;47.486;12.074;2022-12-07T07:27:27;14.03;;;9.33;;
33858;SDS011;20156;47.486;12.074;2022-12-07T07:29:52;14.03;;;9.43;;
33858;SDS011;20156;47.486;12.074;2022-12-07T07:32:18;12.63;;;9.67;;
33858;SDS011;20156;47.486;12.074;2022-12-07T07:34:43;14.47;;;11.00;;
33858;SDS011;20156;47.486;12.074;2022-12-07T07:37:08;14.40;;;9.50;;
33858;SDS011;20156;47.486;12.074;2022-12-07T07:39:35;12.23;;;10.13;;
33858;SDS011;20156;47.486;12.074;2022-12-07T07:42:01;13.97;;;10.23;;
33858;SDS011;20156;47.486;12.074;2022-12-07T07:44:26;13.67;;;10.10;;
33858;SDS011;20156;47.486;12.074;2022-12-07T07:46:52;14.90;;;13.30;;
33858;SDS011;20156;47.486;12.074;2022-12-07T07:49:17;15.13;;;9.60;;
33858;SDS011;20156;47.486;12.074;2022-12-07T07:51:43;12.50;;;9.77;;
33858;SDS011;20156;47.486;12.074;2022-12-07T07:54:08;35.93;;;30.63;;
33858;SDS011;20156;47.486;12.074;2022-12-07T07:56:33;17.87;;;15.43;;
33858;SDS011;20156;47.486;12.074;2022-12-07T07:58:59;16.27;;;11.27;;
33858;SDS011;20156;47.486;12.074;2022-12-07T08:01:24;16.23;;;10.90;;
33858;SDS011;20156;47.486;12.074;2022-12-07T08:03:49;15.23;;;11.50;;
33858;SDS011;20156;47.486;12.074;2022-12-07T08:06:15;35.70;;;29.47;;
33858;SDS011;20156;47.486;12.074;2022-12-07T08:08:40;21.23;;;14.63;;
33858;SDS011;20156;47.486;12.074;2022-12-07T08:11:07;43.10;;;34.47;;
33858;SDS011;20156;47.486;12.074;2022-12-07T08:13:33;17.10;;;13.33;;
33858;SDS011;20156;47.486;12.074;2022-12-07T08:16:02;12.67;;;9.53;;
33858;SDS011;20156;47.486;12.074;2022-12-07T08:18:37;14.90;;;10.50;;
33858;SDS011;20156;47.486;12.074;2022-12-07T08:21:04;11.53;;;8.73;;
33858;SDS011;20156;47.486;12.074;2022-12-07T08:23:30;12.57;;;9.10;;
33858;SDS011;20156;47.486;12.074;2022-12-07T08:26:17;17.27;;;10.20;;
33858;SDS011;20156;47.486;12.074;2022-12-07T08:28:42;23.70;;;15.53;;
33858;SDS011;20156;47.486;12.074;2022-12-07T08:31:10;60.17;;;41.17;;
33858;SDS011;20156;47.486;12.074;2022-12-07T08:33:37;19.30;;;14.50;;
33858;SDS011;20156;47.486;12.074;2022-12-07T08:36:04;12.73;;;9.50;;
33858;SDS011;20156;47.486;12.074;2022-12-07T08:38:31;12.13;;;9.40;;
33858;SDS011;20156;47.486;12.074;2022-12-07T08:40:57;11.93;;;8.48;;
33858;SDS011;20156;47.486;12.074;2022-12-07T08:43:23;17.03;;;11.67;;
33858;SDS011;20156;47.486;12.074;2022-12-07T08:46:36;13.30;;;9.20;;
33858;SDS011;20156;47.486;12.074;2022-12-07T08:48:36;11.23;;;8.80;;
33858;SDS011;20156;47.486;12.074;2022-12-07T08:51:07;16.53;;;14.17;;
33858;SDS011;20156;47.486;12.074;2022-12-07T08:53:32;13.87;;;10.90;;
33858;SDS011;20156;47.486;12.074;2022-12-07T08:56:00;28.27;;;25.13;;
33858;SDS011;20156;47.486;12.074;2022-12-07T08:58:26;40.20;;;32.60;;
33858;SDS011;20156;47.486;12.074;2022-12-07T09:00:51;24.17;;;18.00;;
33858;SDS011;20156;47.486;12.074;2022-12-07T09:03:17;19.80;;;16.90;;
33858;SDS011;20156;47.486;12.074;2022-12-07T09:05:42;13.57;;;10.93;;
33858;SDS011;20156;47.486;12.074;2022-12-07T09:08:08;21.77;;;13.50;;
33858;SDS011;20156;47.486;12.074;2022-12-07T09:10:34;17.97;;;14.70;;
33858;SDS011;20156;47.486;12.074;2022-12-07T09:12:59;29.17;;;22.87;;
33858;SDS011;20156;47.486;12.074;2022-12-07T09:15:28;15.90;;;11.87;;
33858;SDS011;20156;47.486;12.074;2022-12-07T09:17:54;11.57;;;9.10;;
33858;SDS011;20156;47.486;12.074;2022-12-07T09:20:19;13.77;;;9.33;;
33858;SDS011;20156;47.486;12.074;2022-12-07T09:22:45;10.13;;;7.50;;
33858;SDS011;20156;47.486;12.074;2022-12-07T09:25:12;9.87;;;7.37;;
33858;SDS011;20156;47.486;12.074;2022-12-07T09:27:37;11.23;;;8.63;;
33858;SDS011;20156;47.486;12.074;2022-12-07T09:30:03;11.47;;;8.00;;
33858;SDS011;20156;47.486;12.074;2022-12-07T09:32:30;9.67;;;7.40;;
33858;SDS011;20156;47.486;12.074;2022-12-07T09:34:55;12.63;;;8.00;;
33858;SDS011;20156;47.486;12.074;2022-12-07T09:37:20;10.37;;;7.77;;
33858;SDS011;20156;47.486;12.074;2022-12-07T09:39:46;10.00;;;7.47;;
33858;SDS011;20156;47.486;12.074;2022-12-07T09:42:19;10.93;;;7.87;;
33858;SDS011;20156;47.486;12.074;2022-12-07T09:44:54;11.23;;;8.13;;
33858;SDS011;20156;47.486;12.074;2022-12-07T09:47:19;8.90;;;7.57;;
33858;SDS011;20156;47.486;12.074;2022-12-07T09:49:45;11.93;;;8.20;;
33858;SDS011;20156;47.486;12.074;2022-12-07T09:52:18;9.57;;;7.70;;
33858;SDS011;20156;47.486;12.074;2022-12-07T09:54:46;9.77;;;8.60;;
33858;SDS011;20156;47.486;12.074;2022-12-07T09:57:14;11.17;;;9.03;;
33858;SDS011;20156;47.486;12.074;2022-12-07T09:59:39;13.43;;;9.30;;
33858;SDS011;20156;47.486;12.074;2022-12-07T10:02:23;11.33;;;8.40;;
33858;SDS011;20156;47.486;12.074;2022-12-07T10:04:58;8.77;;;7.03;;
33858;SDS011;20156;47.486;12.074;2022-12-07T10:07:24;10.40;;;7.50;;
33858;SDS011;20156;47.486;12.074;2022-12-07T10:09:49;9.10;;;7.57;;
33858;SDS011;20156;47.486;12.074;2022-12-07T10:12:15;11.17;;;8.20;;
33858;SDS011;20156;47.486;12.074;2022-12-07T10:14:52;11.43;;;8.20;;
33858;SDS011;20156;47.486;12.074;2022-12-07T10:17:36;11.27;;;10.07;;
33858;SDS011;20156;47.486;12.074;2022-12-07T10:22:52;10.27;;;8.53;;
33858;SDS011;20156;47.486;12.074;2022-12-07T10:25:20;11.73;;;10.33;;
33858;SDS011;20156;47.486;12.074;2022-12-07T10:34:20;10.50;;;8.63;;
33858;SDS011;20156;47.486;12.074;2022-12-07T10:36:16;10.10;;;9.00;;
33858;SDS011;20156;47.486;12.074;2022-12-07T10:38:51;12.10;;;10.77;;
33858;SDS011;20156;47.486;12.074;2022-12-07T10:41:22;10.13;;;9.03;;
33858;SDS011;20156;47.486;12.074;2022-12-07T10:43:49;12.67;;;9.63;;
33858;SDS011;20156;47.486;12.074;2022-12-07T10:46:36;10.97;;;9.63;;
33858;SDS011;20156;47.486;12.074;2022-12-07T10:49:44;16.70;;;11.40;;
33858;SDS011;20156;47.486;12.074;2022-12-07T10:55:32;16.07;;;11.10;;
33858;SDS011;20156;47.486;12.074;2022-12-07T11:00:29;27.20;;;17.97;;
33858;SDS011;20156;47.486;12.074;2022-12-07T11:06:01;23.37;;;15.57;;
33858;SDS011;20156;47.486;12.074;2022-12-07T11:16:59;11.77;;;9.87;;
33858;SDS011;20156;47.486;12.074;2022-12-07T11:19:39;13.30;;;10.40;;
33858;SDS011;20156;47.486;12.074;2022-12-07T11:27:52;12.00;;;10.00;;
33858;SDS011;20156;47.486;12.074;2022-12-07T11:30:23;12.63;;;10.13;;
33858;SDS011;20156;47.486;12.074;2022-12-07T11:38:16;14.40;;;11.73;;
33858;SDS011;20156;47.486;12.074;2022-12-07T11:40:45;24.33;;;16.60;;
33858;SDS011;20156;47.486;12.074;2022-12-07T11:46:04;15.97;;;12.30;;
33858;SDS011;20156;47.486;12.074;2022-12-07T11:51:03;13.87;;;11.10;;
33858;SDS011;20156;47.486;12.074;2022-12-07T12:03:56;12.47;;;9.87;;
33858;SDS011;20156;47.486;12.074;2022-12-07T12:06:27;13.03;;;9.83;;
33858;SDS011;20156;47.486;12.074;2022-12-07T12:08:59;12.23;;;10.37;;
33858;SDS011;20156;47.486;12.074;2022-12-07T12:11:49;12.87;;;10.50;;
33858;SDS011;20156;47.486;12.074;2022-12-07T12:20:23;12.83;;;10.93;;
33858;SDS011;20156;47.486;12.074;2022-12-07T12:23:00;14.90;;;10.53;;
33858;SDS011;20156;47.486;12.074;2022-12-07T12:25:34;19.70;;;11.70;;
33858;SDS011;20156;47.486;12.074;2022-12-07T12:28:05;12.83;;;11.20;;
33858;SDS011;20156;47.486;12.074;2022-12-07T12:30:37;12.97;;;10.13;;
33858;SDS011;20156;47.486;12.074;2022-12-07T12:33:06;12.17;;;10.33;;
33858;SDS011;20156;47.486;12.074;2022-12-07T12:35:40;11.07;;;9.67;;
33858;SDS011;20156;47.486;12.074;2022-12-07T12:40:53;10.93;;;9.03;;
33858;SDS011;20156;47.486;12.074;2022-12-07T12:54:20;9.20;;;8.03;;
33858;SDS011;20156;47.486;12.074;2022-12-07T13:02:24;10.47;;;9.23;;
33858;SDS011;20156;47.486;12.074;2022-12-07T13:10:22;10.20;;;9.03;;
33858;SDS011;20156;47.486;12.074;2022-12-07T13:12:59;12.37;;;9.87;;
33858;SDS011;20156;47.486;12.074;2022-12-07T13:18:25;14.30;;;10.00;;
33858;SDS011;20156;47.486;12.074;2022-12-07T13:28:48;13.17;;;9.80;;
33858;SDS011;20156;47.486;12.074;2022-12-07T13:31:19;12.57;;;9.90;;
33858;SDS011;20156;47.486;12.074;2022-12-07T13:34:00;13.87;;;9.87;;
33858;SDS011;20156;47.486;12.074;2022-12-07T13:36:28;12.27;;;9.27;;
33858;SDS011;20156;47.486;12.074;2022-12-07T13:39:01;11.23;;;9.47;;
33858;SDS011;20156;47.486;12.074;2022-12-07T13:41:36;16.37;;;10.33;;
33858;SDS011;20156;47.486;12.074;2022-12-07T13:44:09;16.57;;;12.37;;
33858;SDS011;20156;47.486;12.074;2022-12-07T13:46:42;12.13;;;10.77;;
33858;SDS011;20156;47.486;12.074;2022-12-07T13:49:18;12.60;;;9.80;;
33858;SDS011;20156;47.486;12.074;2022-12-07T13:51:46;12.83;;;10.27;;
33858;SDS011;20156;47.486;12.074;2022-12-07T13:54:13;12.47;;;10.10;;
33858;SDS011;20156;47.486;12.074;2022-12-07T13:56:40;13.53;;;10.30;;
33858;SDS011;20156;47.486;12.074;2022-12-07T13:59:12;13.80;;;10.37;;
33858;SDS011;20156;47.486;12.074;2022-12-07T14:01:44;43.53;;;27.03;;
33858;SDS011;20156;47.486;12.074;2022-12-07T14:04:16;26.57;;;17.17;;
33858;SDS011;20156;47.486;12.074;2022-12-07T14:06:47;26.30;;;21.37;;
33858;SDS011;20156;47.486;12.074;2022-12-07T14:09:21;11.87;;;9.80;;
33858;SDS011;20156;47.486;12.074;2022-12-07T14:11:49;10.93;;;8.50;;
33858;SDS011;20156;47.486;12.074;2022-12-07T14:14:17;12.83;;;9.50;;
33858;SDS011;20156;47.486;12.074;2022-12-07T14:16:54;10.50;;;8.30;;
33858;SDS011;20156;47.486;12.074;2022-12-07T14:19:50;9.40;;;7.87;;
33858;SDS011;20156;47.486;12.074;2022-12-07T14:22:19;9.37;;;7.73;;
33858;SDS011;20156;47.486;12.074;2022-12-07T14:24:59;8.60;;;7.70;;
33858;SDS011;20156;47.486;12.074;2022-12-07T14:27:29;13.17;;;8.93;;
33858;SDS011;20156;47.486;12.074;2022-12-07T14:29:59;11.70;;;8.67;;
33858;SDS011;20156;47.486;12.074;2022-12-07T14:32:27;11.47;;;9.53;;
33858;SDS011;20156;47.486;12.074;2022-12-07T14:35:07;12.40;;;9.80;;
33858;SDS011;20156;47.486;12.074;2022-12-07T14:37:33;12.27;;;10.97;;
33858;SDS011;20156;47.486;12.074;2022-12-07T14:39:59;11.03;;;9.27;;
33858;SDS011;20156;47.486;12.074;2022-12-07T14:42:26;14.47;;;8.77;;
33858;SDS011;20156;47.486;12.074;2022-12-07T14:44:54;10.83;;;8.10;;
33858;SDS011;20156;47.486;12.074;2022-12-07T14:47:21;10.00;;;9.00;;
33858;SDS011;20156;47.486;12.074;2022-12-07T14:49:46;9.87;;;8.63;;
33858;SDS011;20156;47.486;12.074;2022-12-07T14:52:30;10.77;;;8.70;;
33858;SDS011;20156;47.486;12.074;2022-12-07T14:54:55;9.50;;;8.20;;
33858;SDS011;20156;47.486;12.074;2022-12-07T14:57:21;9.47;;;8.40;;
33858;SDS011;20156;47.486;12.074;2022-12-07T14:59:46;9.90;;;8.57;;
33858;SDS011;20156;47.486;12.074;2022-12-07T15:02:14;9.10;;;8.13;;
33858;SDS011;20156;47.486;12.074;2022-12-07T15:04:40;11.07;;;8.97;;
33858;SDS011;20156;47.486;12.074;2022-12-07T15:07:08;12.40;;;9.57;;
33858;SDS011;20156;47.486;12.074;2022-12-07T15:09:37;20.67;;;16.00;;
33858;SDS011;20156;47.486;12.074;2022-12-07T15:12:03;59.20;;;43.23;;
33858;SDS011;20156;47.486;12.074;2022-12-07T15:14:29;234.07;;;132.57;;
33858;SDS011;20156;47.486;12.074;2022-12-07T15:16:54;113.10;;;65.70;;
33858;SDS011;20156;47.486;12.074;2022-12-07T15:19:21;100.37;;;57.93;;
33858;SDS011;20156;47.486;12.074;2022-12-07T15:21:51;101.50;;;59.13;;
33858;SDS011;20156;47.486;12.074;2022-12-07T15:24:17;76.53;;;46.20;;
33858;SDS011;20156;47.486;12.074;2022-12-07T15:26:43;87.13;;;50.90;;
33858;SDS011;20156;47.486;12.074;2022-12-07T15:29:09;81.90;;;46.87;;
33858;SDS011;20156;47.486;12.074;2022-12-07T15:31:35;79.47;;;46.67;;
33858;SDS011;20156;47.486;12.074;2022-12-07T15:34:01;39.77;;;24.53;;
33858;SDS011;20156;47.486;12.074;2022-12-07T15:36:27;48.43;;;31.20;;
33858;SDS011;20156;47.486;12.074;2022-12-07T15:38:54;52.87;;;33.67;;
33858;SDS011;20156;47.486;12.074;2022-12-07T15:41:19;39.17;;;26.43;;
33858;SDS011;20156;47.486;12.074;2022-12-07T15:43:45;59.60;;;35.73;;
33858;SDS011;20156;47.486;12.074;2022-12-07T15:46:30;31.47;;;20.00;;
33858;SDS011;20156;47.486;12.074;2022-12-07T15:48:57;12.60;;;10.50;;
33858;SDS011;20156;47.486;12.074;2022-12-07T15:51:22;11.97;;;9.50;;
33858;SDS011;20156;47.486;12.074;2022-12-07T15:53:48;8.13;;;7.33;;
33858;SDS011;20156;47.486;12.074;2022-12-07T15:56:13;8.33;;;6.67;;
33858;SDS011;20156;47.486;12.074;2022-12-07T15:58:39;7.47;;;6.47;;
33858;SDS011;20156;47.486;12.074;2022-12-07T16:01:14;13.73;;;10.20;;
33858;SDS011;20156;47.486;12.074;2022-12-07T16:03:42;7.97;;;6.50;;
33858;SDS011;20156;47.486;12.074;2022-12-07T16:06:08;7.23;;;5.47;;
33858;SDS011;20156;47.486;12.074;2022-12-07T16:08:33;10.67;;;6.90;;
33858;SDS011;20156;47.486;12.074;2022-12-07T16:10:59;7.60;;;6.57;;
33858;SDS011;20156;47.486;12.074;2022-12-07T16:13:29;7.57;;;6.23;;
33858;SDS011;20156;47.486;12.074;2022-12-07T16:15:54;7.27;;;6.47;;
33858;SDS011;20156;47.486;12.074;2022-12-07T16:18:20;7.67;;;6.10;;
33858;SDS011;20156;47.486;12.074;2022-12-07T16:20:47;7.70;;;6.80;;
33858;SDS011;20156;47.486;12.074;2022-12-07T16:23:13;5.97;;;5.37;;
33858;SDS011;20156;47.486;12.074;2022-12-07T16:25:39;6.10;;;5.50;;
33858;SDS011;20156;47.486;12.074;2022-12-07T16:28:04;7.03;;;5.80;;
33858;SDS011;20156;47.486;12.074;2022-12-07T16:30:29;7.77;;;5.80;;
33858;SDS011;20156;47.486;12.074;2022-12-07T16:32:55;12.23;;;6.87;;
33858;SDS011;20156;47.486;12.074;2022-12-07T16:35:20;6.50;;;5.80;;
33858;SDS011;20156;47.486;12.074;2022-12-07T16:37:46;8.20;;;6.17;;